createdAt,value
2022-09-28T00:00:30.533Z,50.84
2022-09-28T00:01:30.557Z,47.07
2022-09-28T00:02:30.604Z,44.28
2022-09-28T00:03:30.509Z,48.19
2022-09-28T00:04:30.521Z,47.46
2022-09-28T00:05:30.482Z,50.44
2022-09-28T00:06:30.490Z,55.51
2022-09-28T00:07:30.475Z,50.41
2022-09-28T00:08:30.456Z,45.69
2022-09-28T00:09:30.434Z,43.95
2022-09-28T00:10:30.467Z,46.21
2022-09-28T00:11:30.425Z,47.98
2022-09-28T00:12:30.414Z,49.64
2022-09-28T00:13:30.427Z,52.33
2022-09-28T00:14:30.402Z,44.22
2022-09-28T00:15:30.392Z,51.38
2022-09-28T00:16:30.433Z,50.22
2022-09-28T00:17:30.369Z,47.14
2022-09-28T00:18:30.397Z,60.92
2022-09-28T00:19:30.346Z,52.94
2022-09-28T00:20:30.336Z,52.49
2022-09-28T00:21:30.327Z,46.48
2022-09-28T00:22:30.317Z,47.78
2022-09-28T00:23:30.306Z,52.25
2022-09-28T00:24:30.320Z,44.17
2022-09-28T00:25:30.291Z,49.88
2022-09-28T00:26:30.275Z,63.88
2022-09-28T00:27:31.274Z,49.31
2022-09-28T00:28:30.265Z,45.58
2022-09-28T00:29:30.264Z,50.68
2022-09-28T00:30:30.250Z,44.78
2022-09-28T00:31:30.324Z,43.91
2022-09-28T00:32:30.224Z,52.77
2022-09-28T00:33:30.215Z,43.94
2022-09-28T00:34:30.222Z,44.56
2022-09-28T00:35:30.197Z,42.88
2022-09-28T00:36:30.187Z,50.13
2022-09-28T00:37:30.189Z,53.09
2022-09-28T00:38:30.178Z,56.31
2022-09-28T00:39:30.153Z,49.53
2022-09-28T00:40:30.228Z,46.33
2022-09-28T00:41:30.128Z,49.77
2022-09-28T00:42:30.140Z,55.43
2022-09-28T00:43:30.112Z,44.72
2022-09-28T00:44:30.104Z,43.68
2022-09-28T00:45:30.152Z,47.76
2022-09-28T00:46:30.086Z,43.19
2022-09-28T00:47:30.073Z,42.82
2022-09-28T00:48:30.089Z,47.91
2022-09-28T00:49:30.077Z,46.33
2022-09-28T00:50:30.045Z,45.24
2022-09-28T00:51:30.035Z,43.36
2022-09-28T00:52:30.055Z,51.51
2022-09-28T00:53:30.020Z,45.54
2022-09-28T00:54:30.011Z,50.40
2022-09-28T00:55:30.011Z,44.02
2022-09-28T00:56:29.997Z,49.33
2022-09-28T00:57:29.969Z,50.45
2022-09-28T00:58:29.959Z,53.26
2022-09-28T00:59:29.957Z,49.76
2022-09-28T01:00:29.947Z,47.32
2022-09-28T01:01:29.946Z,48.05
2022-09-28T01:02:29.977Z,48.43
2022-09-28T01:03:29.916Z,53.01
2022-09-28T01:04:30.170Z,50.13
2022-09-28T01:05:30.907Z,47.61
2022-09-28T01:06:29.892Z,43.58
2022-09-28T01:07:29.873Z,51.20
2022-09-28T01:08:29.889Z,48.79
2022-09-28T01:09:29.858Z,52.07
2022-09-28T01:10:29.850Z,48.96
2022-09-28T01:11:29.826Z,46.22
2022-09-28T01:12:29.821Z,51.95
2022-09-28T01:13:29.825Z,67.99
2022-09-28T01:14:29.809Z,54.28
2022-09-28T01:15:29.781Z,46.39
2022-09-28T01:16:29.860Z,62.26
2022-09-28T01:17:29.800Z,53.41
2022-09-28T01:18:29.760Z,54.32
2022-09-28T01:19:29.761Z,47.74
2022-09-28T01:20:29.758Z,53.49
2022-09-28T01:21:29.731Z,45.83
2022-09-28T01:22:29.712Z,54.86
2022-09-28T01:23:29.732Z,51.66
2022-09-28T01:24:29.695Z,50.30
2022-09-28T01:25:29.705Z,46.08
2022-09-28T01:26:29.682Z,44.52
2022-09-28T01:27:29.705Z,43.59
2022-09-28T01:28:29.677Z,47.09
2022-09-28T01:29:29.664Z,53.61
2022-09-28T01:30:29.644Z,50.13
2022-09-28T01:31:29.690Z,43.89
2022-09-28T01:32:29.639Z,44.90
2022-09-28T01:33:29.617Z,50.86
2022-09-28T01:34:29.601Z,49.02
2022-09-28T01:35:29.595Z,50.89
2022-09-28T01:36:29.588Z,46.84
2022-09-28T01:37:29.587Z,53.72
2022-09-28T01:38:29.570Z,59.14
2022-09-28T01:39:29.564Z,49.34
2022-09-28T01:40:29.597Z,50.98
2022-09-28T01:41:29.544Z,49.33
2022-09-28T01:42:29.539Z,48.75
2022-09-28T01:43:29.524Z,51.87
2022-09-28T01:44:29.521Z,51.46
2022-09-28T01:45:29.593Z,51.98
2022-09-28T01:46:29.479Z,51.96
2022-09-28T01:47:29.475Z,52.52
2022-09-28T01:48:29.466Z,50.37
2022-09-28T01:49:29.459Z,52.07
2022-09-28T01:50:29.468Z,57.03
2022-09-28T01:51:29.455Z,53.82
2022-09-28T01:52:29.432Z,53.83
2022-09-28T01:53:29.426Z,60.98
2022-09-28T01:54:29.423Z,56.06
2022-09-28T01:55:29.434Z,51.37
2022-09-28T01:56:29.401Z,50.40
2022-09-28T01:57:29.389Z,51.13
2022-09-28T01:58:29.394Z,63.00
2022-09-28T01:59:29.373Z,51.68
2022-09-28T02:00:29.497Z,52.28
2022-09-28T02:01:29.356Z,51.99
2022-09-28T02:02:29.411Z,54.18
2022-09-28T02:03:29.389Z,51.68
2022-09-28T02:04:29.328Z,51.16
2022-09-28T02:05:29.309Z,60.62
2022-09-28T02:06:29.296Z,53.19
2022-09-28T02:08:01.191Z,56.27
2022-09-28T02:08:29.290Z,57.33
2022-09-28T02:09:33.601Z,56.70
2022-09-28T02:10:30.251Z,55.60
2022-09-28T02:11:29.259Z,54.81
2022-09-28T02:12:29.225Z,54.85
2022-09-28T02:13:29.231Z,58.75
2022-09-28T02:14:29.230Z,53.66
2022-09-28T02:15:29.198Z,52.71
2022-09-28T02:16:29.260Z,52.75
2022-09-28T02:17:29.184Z,54.39
2022-09-28T02:18:29.188Z,54.58
2022-09-28T02:19:29.171Z,53.28
2022-09-28T02:20:29.161Z,56.10
2022-09-28T02:21:29.182Z,54.35
2022-09-28T02:22:29.145Z,53.61
2022-09-28T02:23:29.131Z,52.39
2022-09-28T02:24:29.107Z,54.64
2022-09-28T02:25:29.102Z,56.24
2022-09-28T02:26:29.090Z,65.01
2022-09-28T02:27:29.120Z,54.96
2022-09-28T02:28:29.073Z,57.54
2022-09-28T02:29:29.066Z,55.41
2022-09-28T02:30:29.058Z,57.23
2022-09-28T02:31:29.070Z,56.19
2022-09-28T02:32:29.054Z,53.43
2022-09-28T02:33:29.031Z,51.76
2022-09-28T02:34:29.045Z,51.78
2022-09-28T02:35:29.015Z,61.72
2022-09-28T02:36:29.008Z,57.43
2022-09-28T02:37:28.982Z,51.20
2022-09-28T02:38:28.991Z,50.04
2022-09-28T02:39:28.983Z,55.01
2022-09-28T02:40:29.015Z,51.59
2022-09-28T02:41:28.961Z,50.76
2022-09-28T02:42:28.960Z,54.08
2022-09-28T02:43:28.936Z,59.63
2022-09-28T02:44:28.920Z,50.46
2022-09-28T02:45:28.977Z,52.58
2022-09-28T02:46:28.918Z,51.55
2022-09-28T02:47:28.893Z,56.06
2022-09-28T02:48:43.051Z,60.38
2022-09-28T02:49:31.064Z,64.13
2022-09-28T02:50:28.876Z,54.72
2022-09-28T02:51:28.874Z,48.15
2022-09-28T02:52:28.841Z,48.45
2022-09-28T02:53:28.828Z,53.98
2022-09-28T02:54:28.826Z,53.45
2022-09-28T02:55:28.831Z,55.77
2022-09-28T02:56:28.822Z,52.01
2022-09-28T02:57:28.803Z,48.35
2022-09-28T02:58:28.790Z,47.05
2022-09-28T02:59:28.772Z,56.68
2022-09-28T03:00:28.792Z,54.19
2022-09-28T03:01:28.750Z,53.08
2022-09-28T03:02:28.814Z,51.92
2022-09-28T03:03:28.736Z,55.72
2022-09-28T03:04:28.734Z,54.81
2022-09-28T03:05:28.732Z,53.97
2022-09-28T03:06:28.719Z,56.02
2022-09-28T03:07:28.699Z,58.52
2022-09-28T03:08:28.723Z,57.67
2022-09-28T03:09:28.687Z,55.19
2022-09-28T03:10:28.696Z,55.53
2022-09-28T03:11:28.666Z,63.65
2022-09-28T03:12:28.666Z,53.75
2022-09-28T03:13:28.647Z,52.21
2022-09-28T03:14:28.645Z,56.87
2022-09-28T03:15:28.637Z,55.62
2022-09-28T03:16:28.643Z,56.77
2022-09-28T03:17:28.607Z,56.68
2022-09-28T03:18:28.608Z,65.41
2022-09-28T03:19:28.585Z,52.07
2022-09-28T03:20:28.571Z,52.72
2022-09-28T03:21:28.582Z,51.15
2022-09-28T03:22:28.552Z,54.20
2022-09-28T03:23:28.547Z,57.24
2022-09-28T03:24:28.536Z,59.39
2022-09-28T03:25:28.546Z,56.65
2022-09-28T03:26:28.532Z,55.36
2022-09-28T03:27:28.512Z,65.26
2022-09-28T03:28:28.501Z,57.00
2022-09-28T03:29:28.491Z,56.61
2022-09-28T03:30:28.497Z,55.30
2022-09-28T03:31:28.523Z,59.96
2022-09-28T03:32:28.481Z,59.89
2022-09-28T03:33:28.466Z,56.64
2022-09-28T03:34:28.439Z,55.65
2022-09-28T03:35:28.442Z,56.53
2022-09-28T03:36:28.429Z,58.13
2022-09-28T03:37:28.414Z,58.49
2022-09-28T03:38:28.420Z,66.94
2022-09-28T03:39:28.394Z,57.34
2022-09-28T03:40:28.448Z,55.73
2022-09-28T03:41:28.373Z,57.87
2022-09-28T03:42:28.371Z,55.39
2022-09-28T03:43:28.376Z,57.28
2022-09-28T03:44:28.351Z,64.34
2022-09-28T03:45:28.440Z,59.31
2022-09-28T03:46:28.324Z,58.02
2022-09-28T03:47:28.317Z,58.48
2022-09-28T03:48:32.155Z,57.52
2022-09-28T03:49:29.294Z,58.89
2022-09-28T03:50:28.301Z,60.03
2022-09-28T03:51:28.297Z,58.12
2022-09-28T03:52:28.274Z,54.85
2022-09-28T03:53:28.281Z,57.71
2022-09-28T03:54:28.255Z,57.83
2022-09-28T03:55:28.235Z,56.40
2022-09-28T03:56:28.245Z,57.58
2022-09-28T03:57:28.247Z,58.71
2022-09-28T03:58:28.236Z,58.02
2022-09-28T03:59:28.205Z,60.43
2022-09-28T04:00:28.277Z,55.11
2022-09-28T04:01:28.216Z,59.56
2022-09-28T04:02:28.207Z,60.16
2022-09-28T04:03:28.203Z,55.65
2022-09-28T04:04:28.173Z,57.18
2022-09-28T04:05:28.150Z,56.64
2022-09-28T04:06:28.134Z,64.22
2022-09-28T04:07:31.047Z,56.98
2022-09-28T04:08:29.110Z,56.50
2022-09-28T04:09:28.121Z,65.66
2022-09-28T04:10:28.086Z,59.13
2022-09-28T04:11:34.946Z,59.16
2022-09-28T04:12:29.099Z,57.70
2022-09-28T04:13:28.060Z,56.97
2022-09-28T04:14:28.053Z,58.97
2022-09-28T04:15:28.047Z,60.95
2022-09-28T04:16:28.067Z,59.55
2022-09-28T04:17:28.050Z,60.58
2022-09-28T04:18:28.016Z,58.11
2022-09-28T04:19:28.000Z,60.71
2022-09-28T04:20:28.016Z,60.20
2022-09-28T04:21:27.999Z,56.72
2022-09-28T04:22:28.006Z,59.94
2022-09-28T04:23:27.974Z,59.54
2022-09-28T04:24:27.949Z,58.04
2022-09-28T04:25:27.955Z,65.06
2022-09-28T04:26:27.938Z,59.05
2022-09-28T04:27:27.946Z,58.29
2022-09-28T04:28:27.934Z,59.35
2022-09-28T04:29:27.908Z,59.49
2022-09-28T04:30:27.888Z,58.87
2022-09-28T04:31:27.915Z,57.52
2022-09-28T04:32:27.885Z,58.41
2022-09-28T04:33:27.875Z,59.83
2022-09-28T04:34:31.875Z,64.26
2022-09-28T04:35:27.847Z,58.68
2022-09-28T04:36:27.838Z,58.71
2022-09-28T04:37:27.849Z,58.03
2022-09-28T04:38:48.833Z,57.95
2022-09-28T04:39:29.808Z,60.49
2022-09-28T04:40:27.826Z,60.28
2022-09-28T04:41:27.783Z,61.30
2022-09-28T04:42:27.781Z,63.95
2022-09-28T04:43:27.774Z,59.78
2022-09-28T04:44:27.756Z,60.90
2022-09-28T04:45:27.800Z,58.70
2022-09-28T04:46:27.737Z,59.20
2022-09-28T04:47:27.734Z,57.61
2022-09-28T04:48:27.730Z,58.94
2022-09-28T04:49:27.707Z,59.03
2022-09-28T04:50:27.692Z,58.70
2022-09-28T04:51:27.689Z,56.68
2022-09-28T04:52:27.692Z,58.28
2022-09-28T04:53:27.666Z,59.13
2022-09-28T04:54:27.664Z,65.19
2022-09-28T04:55:27.649Z,58.07
2022-09-28T04:56:27.650Z,59.82
2022-09-28T04:57:27.648Z,58.05
2022-09-28T04:58:27.635Z,60.57
2022-09-28T04:59:27.630Z,59.57
2022-09-28T05:00:27.600Z,60.03
2022-09-28T05:01:27.719Z,57.21
2022-09-28T05:02:27.642Z,62.15
2022-09-28T05:03:27.578Z,60.41
2022-09-28T05:04:27.596Z,59.68
2022-09-28T05:05:27.559Z,61.20
2022-09-28T05:06:27.553Z,62.05
2022-09-28T05:07:27.551Z,58.71
2022-09-28T05:08:27.523Z,59.61
2022-09-28T05:09:27.520Z,63.26
2022-09-28T05:10:27.534Z,61.21
2022-09-28T05:11:27.490Z,61.72
2022-09-28T05:12:27.483Z,61.83
2022-09-28T05:13:27.486Z,59.80
2022-09-28T05:14:27.469Z,60.40
2022-09-28T05:15:27.482Z,60.98
2022-09-28T05:16:27.459Z,65.81
2022-09-28T05:17:27.429Z,59.34
2022-09-28T05:18:27.426Z,59.67
2022-09-28T05:19:27.431Z,59.69
2022-09-28T05:20:27.414Z,59.11
2022-09-28T05:21:27.418Z,59.85
2022-09-28T05:22:27.402Z,62.75
2022-09-28T05:23:27.385Z,63.28
2022-09-28T05:24:27.378Z,64.26
2022-09-28T05:25:27.360Z,60.67
2022-09-28T05:26:27.387Z,59.88
2022-09-28T05:27:27.348Z,59.97
2022-09-28T05:28:27.335Z,61.09
2022-09-28T05:29:31.424Z,60.46
2022-09-28T05:30:28.331Z,60.28
2022-09-28T05:31:27.360Z,60.98
2022-09-28T05:32:28.318Z,61.95
2022-09-28T05:33:27.292Z,60.83
2022-09-28T05:34:27.292Z,66.58
2022-09-28T05:35:27.281Z,65.80
2022-09-28T05:36:27.260Z,59.74
2022-09-28T05:37:27.239Z,60.51
2022-09-28T05:38:27.244Z,58.98
2022-09-28T05:39:27.227Z,62.49
2022-09-28T05:40:27.255Z,60.90
2022-09-28T05:41:27.206Z,61.40
2022-09-28T05:42:27.201Z,60.07
2022-09-28T05:43:27.198Z,62.67
2022-09-28T05:44:27.166Z,61.11
2022-09-28T05:45:27.241Z,65.17
2022-09-28T05:46:27.217Z,63.34
2022-09-28T05:47:27.140Z,60.79
2022-09-28T05:48:27.157Z,59.34
2022-09-28T05:49:27.139Z,61.46
2022-09-28T05:50:27.122Z,60.49
2022-09-28T05:51:27.142Z,60.00
2022-09-28T05:52:27.101Z,61.50
2022-09-28T05:53:27.075Z,59.25
2022-09-28T05:54:27.084Z,65.64
2022-09-28T05:55:27.135Z,59.18
2022-09-28T05:56:27.060Z,59.48
2022-09-28T05:57:27.048Z,60.15
2022-09-28T05:58:27.041Z,65.29
2022-09-28T05:59:27.037Z,58.23
2022-09-28T06:00:27.041Z,58.89
2022-09-28T06:01:27.147Z,61.19
2022-09-28T06:02:27.065Z,58.83
2022-09-28T06:03:26.988Z,59.31
2022-09-28T06:04:26.973Z,63.12
2022-09-28T06:05:26.991Z,59.14
2022-09-28T06:06:26.959Z,59.60
2022-09-28T06:07:26.966Z,58.13
2022-09-28T06:08:26.955Z,64.20
2022-09-28T06:09:26.924Z,59.25
2022-09-28T06:10:26.924Z,59.70
2022-09-28T06:11:26.944Z,60.35
2022-09-28T06:12:26.928Z,59.41
2022-09-28T06:13:26.911Z,60.02
2022-09-28T06:14:26.881Z,63.03
2022-09-28T06:15:26.872Z,62.61
2022-09-28T06:16:26.899Z,59.71
2022-09-28T06:17:26.853Z,59.23
2022-09-28T06:18:26.871Z,59.50
2022-09-28T06:19:26.825Z,60.66
2022-09-28T06:20:26.817Z,62.37
2022-09-28T06:21:26.819Z,60.83
2022-09-28T06:22:26.795Z,63.30
2022-09-28T06:23:26.788Z,62.01
2022-09-28T06:24:27.785Z,58.22
2022-09-28T06:25:26.761Z,61.02
2022-09-28T06:26:27.774Z,60.93
2022-09-28T06:27:26.746Z,61.71
2022-09-28T06:28:26.761Z,63.08
2022-09-28T06:29:26.753Z,66.39
2022-09-28T06:30:26.751Z,59.14
2022-09-28T06:31:27.715Z,58.68
2022-09-28T06:32:26.710Z,60.29
2022-09-28T06:33:26.698Z,59.29
2022-09-28T06:34:26.706Z,58.80
2022-09-28T06:35:26.672Z,58.52
2022-09-28T06:36:26.655Z,57.74
2022-09-28T06:37:26.649Z,59.20
2022-09-28T06:38:26.650Z,61.56
2022-09-28T06:39:26.628Z,58.95
2022-09-28T06:40:26.683Z,60.94
2022-09-28T06:41:26.634Z,59.89
2022-09-28T06:42:26.605Z,59.03
2022-09-28T06:43:28.906Z,59.85
2022-09-28T06:44:26.586Z,59.76
2022-09-28T06:45:27.571Z,64.18
2022-09-28T06:46:26.631Z,60.84
2022-09-28T06:47:26.558Z,58.63
2022-09-28T06:48:26.551Z,59.31
2022-09-28T06:49:26.537Z,59.07
2022-09-28T06:50:26.531Z,64.07
2022-09-28T06:51:26.534Z,58.86
2022-09-28T06:52:26.502Z,61.23
2022-09-28T06:53:26.493Z,63.27
2022-09-28T06:54:26.506Z,59.64
2022-09-28T06:55:26.472Z,62.49
2022-09-28T06:56:29.432Z,62.52
2022-09-28T06:57:28.459Z,59.25
2022-09-28T06:58:26.441Z,56.32
2022-09-28T06:59:26.430Z,56.64
2022-09-28T07:00:26.510Z,59.05
2022-09-28T07:01:26.480Z,57.94
2022-09-28T07:02:26.466Z,64.07
2022-09-28T07:03:26.394Z,59.30
2022-09-28T07:04:26.385Z,60.07
2022-09-28T07:05:26.384Z,58.85
2022-09-28T07:06:26.372Z,59.01
2022-09-28T07:07:26.377Z,56.00
2022-09-28T07:08:26.363Z,58.93
2022-09-28T07:09:32.812Z,60.23
2022-09-28T07:10:28.339Z,60.45
2022-09-28T07:11:26.324Z,60.04
2022-09-28T07:12:26.317Z,60.92
2022-09-28T07:13:52.704Z,56.77
2022-09-28T07:14:46.249Z,59.23
2022-09-28T07:15:28.284Z,58.76
2022-09-28T07:16:29.837Z,60.09
2022-09-28T07:17:27.352Z,65.28
2022-09-28T07:18:26.293Z,56.55
2022-09-28T07:19:26.240Z,58.39
2022-09-28T07:20:26.285Z,60.90
2022-09-28T07:21:30.399Z,55.80
2022-09-28T07:22:40.165Z,56.86
2022-09-28T07:23:28.236Z,58.90
2022-09-28T07:24:26.194Z,59.19
2022-09-28T07:25:26.185Z,57.03
2022-09-28T07:26:26.182Z,53.88
2022-09-28T07:27:28.925Z,59.74
2022-09-28T07:28:27.167Z,57.78
2022-09-28T07:29:26.147Z,56.42
2022-09-28T07:30:26.210Z,57.33
2022-09-28T07:31:26.130Z,65.03
2022-09-28T07:32:26.139Z,57.39
2022-09-28T07:33:26.112Z,62.28
2022-09-28T07:34:26.096Z,59.62
2022-09-28T07:35:26.095Z,56.32
2022-09-28T07:36:26.099Z,58.12
2022-09-28T07:37:26.069Z,58.81
2022-09-28T07:38:26.082Z,61.37
2022-09-28T07:39:26.041Z,58.00
2022-09-28T07:40:26.148Z,58.75
2022-09-28T07:41:26.040Z,57.41
2022-09-28T07:42:26.014Z,63.45
2022-09-28T07:43:26.011Z,57.26
2022-09-28T07:44:25.998Z,58.97
2022-09-28T07:45:25.979Z,58.90
2022-09-28T07:46:26.124Z,58.32
2022-09-28T07:47:28.594Z,59.55
2022-09-28T07:48:26.967Z,64.08
2022-09-28T07:49:25.951Z,56.27
2022-09-28T07:50:25.933Z,59.17
2022-09-28T07:51:25.951Z,59.38
2022-09-28T07:52:25.917Z,59.02
2022-09-28T07:53:25.906Z,58.50
2022-09-28T07:54:25.900Z,59.73
2022-09-28T07:55:25.895Z,63.46
2022-09-28T07:56:25.899Z,60.00
2022-09-28T07:57:25.866Z,57.59
2022-09-28T07:58:25.851Z,58.76
2022-09-28T07:59:25.852Z,61.23
2022-09-28T08:00:25.839Z,58.62
2022-09-28T08:01:25.892Z,57.09
2022-09-28T08:02:25.928Z,63.96
2022-09-28T08:03:25.810Z,59.01
2022-09-28T08:04:25.800Z,59.44
2022-09-28T08:05:25.795Z,62.57
2022-09-28T08:06:25.806Z,60.14
2022-09-28T08:07:25.771Z,65.42
2022-09-28T08:08:57.674Z,55.84
2022-09-28T08:09:25.750Z,58.28
2022-09-28T08:10:25.753Z,63.73
2022-09-28T08:11:25.731Z,59.67
2022-09-28T08:12:25.756Z,58.76
2022-09-28T08:13:26.976Z,57.14
2022-09-28T08:14:26.737Z,60.05
2022-09-28T08:15:25.702Z,59.19
2022-09-28T08:16:25.755Z,60.49
2022-09-28T08:17:25.708Z,59.86
2022-09-28T08:18:25.684Z,56.64
2022-09-28T08:19:25.654Z,56.31
2022-09-28T08:20:25.649Z,62.22
2022-09-28T08:21:25.668Z,58.15
2022-09-28T08:22:25.632Z,59.42
2022-09-28T08:23:25.642Z,57.56
2022-09-28T08:24:25.609Z,57.38
2022-09-28T08:25:25.597Z,66.85
2022-09-28T08:26:25.584Z,58.14
2022-09-28T08:27:25.561Z,63.27
2022-09-28T08:28:26.587Z,55.96
2022-09-28T08:29:25.601Z,54.90
2022-09-28T08:30:25.589Z,56.29
2022-09-28T08:31:25.539Z,59.16
2022-09-28T08:32:25.528Z,61.54
2022-09-28T08:33:25.536Z,55.92
2022-09-28T08:34:25.507Z,58.79
2022-09-28T08:35:25.488Z,59.33
2022-09-28T08:36:25.508Z,59.23
2022-09-28T08:37:25.474Z,58.87
2022-09-28T08:38:25.459Z,56.58
2022-09-28T08:39:25.465Z,58.47
2022-09-28T08:40:25.499Z,57.51
2022-09-28T08:41:25.454Z,56.14
2022-09-28T08:42:25.428Z,56.17
2022-09-28T08:43:25.412Z,59.10
2022-09-28T08:44:25.416Z,58.70
2022-09-28T08:45:25.398Z,55.82
2022-09-28T08:46:27.124Z,56.27
2022-09-28T08:47:25.380Z,58.36
2022-09-28T08:48:25.383Z,58.48
2022-09-28T08:49:26.403Z,64.35
2022-09-28T08:50:26.342Z,54.76
2022-09-28T08:51:25.348Z,56.34
2022-09-28T08:52:25.341Z,56.01
2022-09-28T08:53:25.312Z,54.84
2022-09-28T08:54:25.299Z,57.70
2022-09-28T08:55:25.302Z,62.16
2022-09-28T08:56:25.280Z,57.12
2022-09-28T08:57:25.288Z,65.60
2022-09-28T08:58:25.259Z,56.96
2022-09-28T08:59:25.258Z,58.66
2022-09-28T09:00:25.267Z,61.05
2022-09-28T09:01:25.270Z,60.19
2022-09-28T09:02:25.328Z,55.82
2022-09-28T09:03:25.216Z,58.52
2022-09-28T09:04:25.209Z,65.45
2022-09-28T09:05:25.207Z,56.74
2022-09-28T09:06:25.189Z,55.89
2022-09-28T09:07:25.184Z,61.64
2022-09-28T09:08:25.169Z,54.76
2022-09-28T09:09:25.146Z,58.20
2022-09-28T09:10:25.165Z,58.27
2022-09-28T09:11:25.127Z,56.35
2022-09-28T09:12:25.156Z,56.85
2022-09-28T09:13:25.136Z,55.50
2022-09-28T09:14:25.111Z,58.26
2022-09-28T09:15:25.113Z,56.61
2022-09-28T09:16:25.133Z,55.92
2022-09-28T09:17:25.114Z,56.36
2022-09-28T09:18:25.074Z,57.37
2022-09-28T09:19:25.064Z,54.22
2022-09-28T09:20:25.071Z,56.27
2022-09-28T09:21:25.038Z,54.80
2022-09-28T09:22:25.047Z,61.17
2022-09-28T09:23:25.036Z,54.69
2022-09-28T09:24:25.020Z,55.23
2022-09-28T09:25:25.001Z,55.09
2022-09-28T09:26:26.270Z,53.40
2022-09-28T09:27:26.009Z,56.01
2022-09-28T09:28:24.970Z,56.24
2022-09-28T09:29:24.964Z,57.30
2022-09-28T09:30:27.165Z,63.15
2022-09-28T09:31:24.986Z,55.65
2022-09-28T09:32:24.950Z,54.36
2022-09-28T09:33:24.925Z,56.48
2022-09-28T09:34:24.931Z,54.26
2022-09-28T09:35:29.279Z,56.63
2022-09-28T09:36:25.893Z,55.84
2022-09-28T09:37:24.881Z,61.32
2022-09-28T09:38:24.885Z,55.85
2022-09-28T09:39:24.890Z,55.19
2022-09-28T09:40:24.958Z,55.27
2022-09-28T09:41:24.865Z,55.02
2022-09-28T09:42:24.836Z,55.66
2022-09-28T09:43:28.025Z,62.36
2022-09-28T09:44:24.844Z,56.73
2022-09-28T09:45:24.807Z,57.38
2022-09-28T09:46:24.834Z,58.31
2022-09-28T09:47:25.788Z,56.62
2022-09-28T09:48:24.772Z,57.42
2022-09-28T09:49:24.764Z,58.01
2022-09-28T09:50:24.777Z,58.45
2022-09-28T09:51:24.766Z,63.41
2022-09-28T09:52:24.804Z,58.36
2022-09-28T09:53:24.750Z,56.17
2022-09-28T09:54:24.722Z,57.28
2022-09-28T09:55:29.661Z,57.35
2022-09-28T09:56:25.697Z,57.00
2022-09-28T09:57:24.688Z,57.65
2022-09-28T09:58:24.687Z,57.45
2022-09-28T09:59:24.682Z,55.99
2022-09-28T10:00:24.680Z,54.39
2022-09-28T10:01:24.739Z,55.23
2022-09-28T10:02:24.722Z,56.81
2022-09-28T10:03:24.626Z,58.17
2022-09-28T10:04:24.626Z,58.48
2022-09-28T10:05:24.614Z,57.08
2022-09-28T10:06:24.635Z,59.65
2022-09-28T10:07:24.602Z,57.28
2022-09-28T10:08:24.602Z,57.27
2022-09-28T10:09:24.576Z,56.44
2022-09-28T10:10:24.563Z,57.67
2022-09-28T10:11:24.559Z,58.06
2022-09-28T10:12:24.545Z,61.17
2022-09-28T10:13:24.566Z,59.15
2022-09-28T10:14:24.530Z,64.42
2022-09-28T10:15:24.523Z,58.27
2022-09-28T10:16:24.543Z,58.62
2022-09-28T10:17:24.495Z,58.91
2022-09-28T10:18:24.500Z,56.99
2022-09-28T10:19:24.480Z,57.64
2022-09-28T10:20:24.483Z,57.38
2022-09-28T10:21:24.452Z,55.18
2022-09-28T10:22:24.446Z,57.14
2022-09-28T10:23:24.465Z,55.67
2022-09-28T10:24:24.434Z,58.99
2022-09-28T10:25:24.416Z,58.61
2022-09-28T10:26:25.268Z,58.72
2022-09-28T10:27:24.406Z,59.11
2022-09-28T10:28:24.390Z,61.95
2022-09-28T10:29:24.380Z,56.53
2022-09-28T10:30:24.381Z,57.72
2022-09-28T10:31:24.365Z,56.24
2022-09-28T10:32:24.352Z,57.80
2022-09-28T10:33:24.343Z,58.79
2022-09-28T10:34:24.349Z,58.92
2022-09-28T10:35:24.339Z,57.90
2022-09-28T10:36:24.303Z,58.92
2022-09-28T10:37:24.307Z,62.26
2022-09-28T10:38:24.289Z,60.04
2022-09-28T10:39:24.281Z,63.50
2022-09-28T10:40:24.344Z,57.50
2022-09-28T10:41:24.260Z,58.55
2022-09-28T10:42:24.260Z,59.83
2022-09-28T10:43:24.240Z,57.54
2022-09-28T10:44:24.230Z,60.13
2022-09-28T10:45:24.232Z,56.10
2022-09-28T10:46:24.270Z,58.05
2022-09-28T10:47:24.208Z,57.41
2022-09-28T10:48:24.190Z,56.51
2022-09-28T10:49:24.190Z,56.50
2022-09-28T10:50:24.179Z,57.43
2022-09-28T10:51:24.156Z,56.53
2022-09-28T10:52:24.201Z,58.04
2022-09-28T10:53:24.175Z,56.31
2022-09-28T10:54:24.133Z,64.85
2022-09-28T10:55:24.121Z,59.55
2022-09-28T10:56:24.115Z,57.67
2022-09-28T10:57:24.106Z,57.32
2022-09-28T10:58:24.123Z,56.77
2022-09-28T10:59:24.095Z,57.42
2022-09-28T11:00:24.076Z,57.59
2022-09-28T11:01:24.091Z,58.99
2022-09-28T11:02:24.074Z,58.64
2022-09-28T11:03:24.036Z,56.73
2022-09-28T11:04:24.043Z,59.71
2022-09-28T11:05:24.027Z,57.58
2022-09-28T11:06:24.012Z,59.42
2022-09-28T11:07:23.995Z,57.82
2022-09-28T11:08:23.990Z,58.12
2022-09-28T11:09:27.087Z,57.47
2022-09-28T11:10:24.979Z,60.19
2022-09-28T11:11:23.963Z,58.31
2022-09-28T11:12:23.959Z,58.51
2022-09-28T11:13:23.948Z,56.68
2022-09-28T11:14:23.955Z,58.01
2022-09-28T11:15:23.930Z,57.32
2022-09-28T11:16:23.964Z,55.45
2022-09-28T11:17:23.897Z,56.65
2022-09-28T11:18:23.886Z,63.37
2022-09-28T11:19:23.903Z,59.38
2022-09-28T11:20:27.522Z,54.12
2022-09-28T11:21:24.861Z,57.03
2022-09-28T11:22:23.855Z,59.57
2022-09-28T11:23:23.859Z,60.43
2022-09-28T11:24:24.030Z,58.74
2022-09-28T11:25:23.825Z,56.00
2022-09-28T11:26:23.807Z,57.91
2022-09-28T11:27:23.829Z,55.37
2022-09-28T11:28:23.813Z,58.63
2022-09-28T11:29:23.783Z,56.08
2022-09-28T11:30:23.848Z,57.33
2022-09-28T11:31:23.757Z,56.17
2022-09-28T11:32:23.766Z,56.03
2022-09-28T11:33:23.767Z,56.88
2022-09-28T11:34:36.194Z,61.86
2022-09-28T11:35:25.728Z,55.55
2022-09-28T11:36:23.716Z,58.52
2022-09-28T11:37:23.702Z,56.42
2022-09-28T11:38:23.714Z,55.23
2022-09-28T11:39:23.676Z,55.51
2022-09-28T11:40:23.752Z,57.31
2022-09-28T11:41:23.668Z,59.42
2022-09-28T11:42:23.644Z,64.70
2022-09-28T11:43:23.638Z,70.76
2022-09-28T11:44:23.645Z,60.72
2022-09-28T11:45:23.652Z,60.18
2022-09-28T11:46:23.645Z,60.38
2022-09-28T11:47:23.609Z,58.33
2022-09-28T11:48:23.587Z,56.92
2022-09-28T11:49:23.576Z,57.66
2022-09-28T11:50:24.618Z,57.98
2022-09-28T11:51:24.554Z,60.50
2022-09-28T11:52:24.625Z,58.79
2022-09-28T11:53:23.544Z,57.52
2022-09-28T11:54:23.532Z,56.73
2022-09-28T11:55:23.513Z,57.24
2022-09-28T11:56:23.511Z,56.19
2022-09-28T11:57:23.512Z,57.04
2022-09-28T11:58:23.548Z,62.73
2022-09-28T11:59:23.488Z,57.58
2022-09-28T12:00:23.461Z,56.68
2022-09-28T12:01:23.461Z,56.44
2022-09-28T12:02:23.611Z,59.62
2022-09-28T12:03:23.553Z,57.83
2022-09-28T12:04:23.457Z,58.49
2022-09-28T12:05:23.415Z,58.87
2022-09-28T12:06:23.397Z,59.32
2022-09-28T12:07:23.415Z,58.52
2022-09-28T12:08:23.388Z,58.41
2022-09-28T12:09:23.393Z,57.12
2022-09-28T12:10:23.372Z,58.13
2022-09-28T12:11:23.360Z,58.16
2022-09-28T12:12:23.346Z,55.36
2022-09-28T12:13:23.339Z,56.47
2022-09-28T12:14:23.343Z,56.37
2022-09-28T12:15:23.325Z,56.84
2022-09-28T12:16:46.842Z,57.08
2022-09-28T12:17:25.355Z,58.19
2022-09-28T12:18:23.277Z,64.17
2022-09-28T12:19:23.285Z,58.38
2022-09-28T12:20:24.266Z,58.00
2022-09-28T12:21:23.275Z,57.46
2022-09-28T12:22:23.244Z,58.69
2022-09-28T12:23:23.239Z,60.21
2022-09-28T12:24:23.238Z,57.86
2022-09-28T12:25:23.221Z,59.23
2022-09-28T12:26:23.212Z,57.06
2022-09-28T12:27:23.210Z,58.93
2022-09-28T12:28:23.171Z,56.17
2022-09-28T12:29:23.172Z,58.08
2022-09-28T12:30:23.167Z,58.52
2022-09-28T12:31:23.217Z,57.94
2022-09-28T12:32:23.158Z,56.52
2022-09-28T12:33:23.136Z,57.83
2022-09-28T12:34:23.123Z,59.34
2022-09-28T12:35:23.125Z,58.39
2022-09-28T12:36:23.123Z,57.86
2022-09-28T12:37:23.107Z,60.94
2022-09-28T12:38:23.110Z,58.79
2022-09-28T12:39:35.515Z,58.97
2022-09-28T12:40:24.105Z,57.71
2022-09-28T12:41:23.058Z,59.86
2022-09-28T12:42:23.046Z,61.76
2022-09-28T12:43:23.040Z,59.51
2022-09-28T12:44:23.039Z,59.26
2022-09-28T12:45:23.015Z,62.35
2022-09-28T12:46:23.069Z,60.28
2022-09-28T12:47:23.015Z,64.27
2022-09-28T12:48:22.990Z,58.33
2022-09-28T12:50:45.585Z,59.18
2022-09-28T12:51:24.998Z,57.67
2022-09-28T12:52:22.954Z,63.21
2022-09-28T12:53:22.945Z,64.80